Time;durP1;ratioP1;P1;durP2;ratioP2;P2;SDS_P1;SDS_P2;PMS_P1;PMS_P2;Temp;Humidity;BMP_temperature;BMP_pressure;BME280_temperature;BME280_humidity;BME280_pressure;Samples;Min_cycle;Max_cycle;Signal;HPM_P1;HPM_P2
2023/01/07 00:01:27;;;;;;;16.65;9.45;;;9.90;99.90;;;;;;5092151;28;20028;-76
2023/01/07 00:03:54;;;;;;;15.20;10.65;;;10.00;99.90;;;;;;5090281;28;20024;-76
2023/01/07 00:06:26;;;;;;;15.93;9.50;;;10.00;99.90;;;;;;5090399;28;20025;-77
2023/01/07 00:08:53;;;;;;;14.32;10.10;;;10.00;99.90;;;;;;5091181;28;20036;-76
2023/01/07 00:11:22;;;;;;;14.67;9.63;;;10.00;99.90;;;;;;5091129;28;20046;-77
2023/01/07 00:13:49;;;;;;;12.43;8.45;;;10.00;99.90;;;;;;5090668;28;20032;-76
2023/01/07 00:16:18;;;;;;;19.15;9.35;;;10.00;99.90;;;;;;5090389;28;20529;-77
2023/01/07 00:18:45;;;;;;;13.02;8.25;;;10.10;99.90;;;;;;5090129;28;20429;-75
2023/01/07 00:21:13;;;;;;;11.07;7.53;;;10.20;99.90;;;;;;5091629;28;20047;-77
2023/01/07 00:23:40;;;;;;;11.80;7.68;;;10.20;99.90;;;;;;5090232;28;20043;-76
2023/01/07 00:26:18;;;;;;;11.73;8.43;;;10.20;99.90;;;;;;5090929;28;20358;-77
2023/01/07 00:28:46;;;;;;;9.85;7.18;;;10.20;99.90;;;;;;5089920;28;20113;-76
2023/01/07 00:31:21;;;;;;;12.73;7.05;;;10.20;99.90;;;;;;5090599;28;20028;-76
2023/01/07 00:34:05;;;;;;;11.65;7.72;;;10.30;99.90;;;;;;5089551;28;20020;-77
2023/01/07 00:36:33;;;;;;;10.32;7.07;;;10.30;99.90;;;;;;5088814;28;20028;-77
2023/01/07 00:39:02;;;;;;;11.55;7.68;;;10.30;99.90;;;;;;5091197;28;20130;-76
2023/01/07 00:41:28;;;;;;;11.90;7.63;;;10.30;99.90;;;;;;5089378;28;20085;-78
2023/01/07 00:43:55;;;;;;;10.55;6.93;;;10.40;99.90;;;;;;5090440;28;20123;-77
2023/01/07 00:46:20;;;;;;;13.57;7.45;;;10.40;99.90;;;;;;5089252;28;20043;-76
2023/01/07 00:48:46;;;;;;;10.52;7.38;;;10.30;99.90;;;;;;5090288;28;20488;-77
2023/01/07 00:51:13;;;;;;;9.27;6.45;;;10.40;99.90;;;;;;5089668;28;20028;-77
2023/01/07 00:53:39;;;;;;;12.18;7.30;;;10.40;99.90;;;;;;5090263;28;20039;-77
2023/01/07 00:56:05;;;;;;;11.88;6.95;;;10.50;99.90;;;;;;5090245;28;20021;-77
2023/01/07 00:58:31;;;;;;;10.27;7.40;;;10.50;99.90;;;;;;5090346;28;20036;-77
2023/01/07 01:01:01;;;;;;;10.48;6.28;;;10.50;99.90;;;;;;5090469;28;20032;-77
2023/01/07 01:03:28;;;;;;;15.98;6.78;;;10.50;99.90;;;;;;5089773;28;20109;-77
2023/01/07 01:06:06;;;;;;;11.00;7.57;;;10.50;99.90;;;;;;5090424;28;20050;-77
2023/01/07 01:08:32;;;;;;;109.40;56.63;;;10.60;99.90;;;;;;5090543;28;20115;-78
2023/01/07 01:11:03;;;;;;;18.20;10.80;;;10.60;99.90;;;;;;5089098;28;20032;-77
2023/01/07 01:13:29;;;;;;;8.93;6.40;;;10.60;99.90;;;;;;5089203;28;20035;-76
2023/01/07 01:15:55;;;;;;;8.18;5.28;;;10.60;99.90;;;;;;5090073;28;20039;-77
2023/01/07 01:18:21;;;;;;;7.05;4.95;;;10.60;99.90;;;;;;5089688;28;20017;-76
2023/01/07 01:20:46;;;;;;;5.72;4.38;;;10.60;99.90;;;;;;5089200;28;20028;-77
2023/01/07 01:23:13;;;;;;;5.30;3.97;;;10.70;99.90;;;;;;5090333;28;20044;-76
2023/01/07 01:25:39;;;;;;;6.60;4.72;;;10.70;99.90;;;;;;5090609;28;20028;-76
2023/01/07 01:28:05;;;;;;;5.40;4.32;;;10.70;99.90;;;;;;5090328;28;20024;-75
2023/01/07 01:30:30;;;;;;;7.05;4.50;;;10.70;99.90;;;;;;5089068;28;20024;-77
2023/01/07 01:32:56;;;;;;;8.10;3.90;;;10.80;99.90;;;;;;5089566;28;20020;-77
2023/01/07 01:35:22;;;;;;;5.10;3.95;;;10.70;99.90;;;;;;5090300;28;20032;-79
2023/01/07 01:37:48;;;;;;;4.70;3.38;;;10.70;99.90;;;;;;5090015;28;20067;-76
2023/01/07 01:40:13;;;;;;;5.60;3.40;;;10.70;99.90;;;;;;5090014;28;20054;-76
2023/01/07 01:42:39;;;;;;;5.68;3.78;;;10.70;99.90;;;;;;5088646;28;20422;-77
2023/01/07 01:45:05;;;;;;;6.40;3.85;;;10.70;99.90;;;;;;5089216;28;20079;-76
2023/01/07 01:47:36;;;;;;;6.20;3.30;;;10.70;99.90;;;;;;5088897;28;20039;-77
2023/01/07 01:50:41;;;;;;;4.50;3.30;;;10.70;99.90;;;;;;5093340;28;20035;-76
2023/01/07 01:53:12;;;;;;;5.65;3.33;;;10.70;99.90;;;;;;5092173;28;20502;-77
2023/01/07 01:55:45;;;;;;;7.95;3.30;;;10.70;99.90;;;;;;5093658;28;20048;-77
2023/01/07 01:58:16;;;;;;;7.60;2.80;;;10.70;99.90;;;;;;5093657;28;20028;-77
2023/01/07 02:00:42;;;;;;;4.47;3.20;;;10.60;99.90;;;;;;5093723;28;20327;-77
2023/01/07 02:03:12;;;;;;;5.82;3.28;;;10.70;99.90;;;;;;5093032;28;20078;-78
2023/01/07 02:05:40;;;;;;;3.33;3.00;;;10.60;99.90;;;;;;5093476;28;20032;-76
2023/01/07 02:08:05;;;;;;;;;;;10.60;99.90;;;;;;5093856;28;20028;-77
2023/01/07 02:10:32;;;;;;;4.30;2.97;;;10.70;99.90;;;;;;5092129;28;20306;-76
2023/01/07 02:13:18;;;;;;;4.55;3.40;;;10.60;99.90;;;;;;5091897;28;20103;-76
2023/01/07 02:16:14;;;;;;;5.05;3.42;;;10.60;99.90;;;;;;5092941;28;20323;-76
2023/01/07 02:18:43;;;;;;;4.72;3.38;;;10.60;99.90;;;;;;5093236;28;20028;-77
2023/01/07 02:21:51;;;;;;;3.70;3.03;;;10.60;99.90;;;;;;5092544;28;20073;-77
2023/01/07 02:24:19;;;;;;;;;;;10.70;99.90;;;;;;5084238;28;20465;-77
2023/01/07 02:27:30;;;;;;;3.63;3.00;;;10.70;99.90;;;;;;5108829;28;19911;-77
2023/01/07 02:29:59;;;;;;;3.97;3.20;;;10.70;99.90;;;;;;5030551;28;20045;-77
2023/01/07 02:33:05;;;;;;;5.72;3.30;;;10.70;99.90;;;;;;5030215;28;20034;-76
2023/01/07 02:36:12;;;;;;;4.47;3.22;;;10.70;99.90;;;;;;5081957;28;20471;-77
2023/01/07 02:39:08;;;;;;;3.65;3.08;;;10.70;99.90;;;;;;5103421;28;20073;-77
2023/01/07 02:41:53;;;;;;;4.88;2.80;;;10.70;99.90;;;;;;5112954;28;20032;-77
2023/01/07 02:44:41;;;;;;;3.42;2.78;;;10.80;99.90;;;;;;5111898;28;20376;-76
2023/01/07 02:47:21;;;;;;;3.75;3.00;;;10.80;99.90;;;;;;5111861;28;20042;-78
2023/01/07 02:49:48;;;;;;;4.63;2.72;;;10.80;99.90;;;;;;5113217;28;20046;-77
2023/01/07 02:52:21;;;;;;;5.40;3.40;;;10.80;99.90;;;;;;5111976;28;20373;-77
2023/01/07 02:55:11;;;;;;;4.18;3.35;;;10.70;99.90;;;;;;5112882;28;20027;-77
2023/01/07 02:57:53;;;;;;;3.58;3.20;;;10.80;99.90;;;;;;5113065;27;20091;-77
2023/01/07 03:00:42;;;;;;;3.45;3.15;;;10.80;99.90;;;;;;5112411;28;20024;-77
2023/01/07 03:03:14;;;;;;;4.78;3.22;;;10.70;99.90;;;;;;5111749;28;20050;-76
2023/01/07 03:05:52;;;;;;;4.05;3.08;;;10.70;99.90;;;;;;5112932;28;20032;-76
2023/01/07 03:08:55;;;;;;;3.92;3.42;;;10.80;99.90;;;;;;5111325;28;20555;-77
2023/01/07 03:11:23;;;;;;;7.68;3.72;;;10.70;99.90;;;;;;5101026;28;20106;-78
2023/01/07 03:14:10;;;;;;;6.43;3.42;;;10.70;99.90;;;;;;5112467;28;20027;-76
2023/01/07 03:16:39;;;;;;;4.72;3.38;;;10.70;99.90;;;;;;5111893;27;20038;-77
2023/01/07 03:19:22;;;;;;;5.15;3.00;;;10.70;99.90;;;;;;5112426;28;20031;-77
2023/01/07 03:21:47;;;;;;;3.92;2.83;;;10.70;99.90;;;;;;5111149;28;20015;-78
2023/01/07 03:24:15;;;;;;;8.15;3.05;;;10.70;99.90;;;;;;5112772;28;20035;-77
2023/01/07 03:26:48;;;;;;;7.55;3.05;;;10.70;99.90;;;;;;5111171;28;20032;-77
2023/01/07 03:29:16;;;;;;;4.05;3.13;;;10.70;99.90;;;;;;5112090;28;20392;-77
2023/01/07 03:32:11;;;;;;;;;;;10.70;99.90;;;;;;5112769;28;20534;-77
2023/01/07 03:34:37;;;;;;;2.83;2.55;;;10.70;99.90;;;;;;5096993;28;19980;-77
2023/01/07 03:37:11;;;;;;;3.67;2.72;;;10.70;99.90;;;;;;5112261;28;20146;-77
2023/01/07 03:39:39;;;;;;;3.20;2.67;;;10.70;99.90;;;;;;5111930;28;20024;-78
2023/01/07 03:44:53;;;;;;;4.65;3.25;;;10.70;99.90;;;;;;5112218;28;20128;-77
2023/01/07 03:47:19;;;;;;;3.35;3.05;;;10.70;99.90;;;;;;5110835;28;20430;-76
2023/01/07 03:49:45;;;;;;;3.17;2.70;;;10.80;99.90;;;;;;5111731;28;20050;-75
2023/01/07 03:52:11;;;;;;;3.97;3.20;;;10.80;99.90;;;;;;5110765;28;20388;-77
2023/01/07 03:54:36;;;;;;;3.58;2.90;;;10.80;99.90;;;;;;5110783;28;20361;-76
2023/01/07 03:57:02;;;;;;;4.80;3.55;;;10.90;99.90;;;;;;5112530;28;20426;-77
2023/01/07 03:59:28;;;;;;;3.80;2.88;;;10.80;99.90;;;;;;5110792;28;20032;-77
2023/01/07 04:01:54;;;;;;;3.40;2.60;;;10.80;99.90;;;;;;5110447;28;20106;-77
2023/01/07 04:04:19;;;;;;;2.85;2.50;;;10.80;99.90;;;;;;5111720;28;20027;-77
2023/01/07 04:06:46;;;;;;;3.30;2.88;;;11.00;99.90;;;;;;5110050;28;20051;-77
2023/01/07 04:09:13;;;;;;;6.57;2.53;;;10.90;99.90;;;;;;5111858;28;20046;-77
2023/01/07 04:11:40;;;;;;;4.30;2.58;;;10.90;99.90;;;;;;5110501;28;20090;-77
2023/01/07 04:14:06;;;;;;;3.70;2.90;;;10.90;99.90;;;;;;5111334;28;20035;-76
2023/01/07 04:16:32;;;;;;;3.65;2.83;;;10.90;99.90;;;;;;5111238;28;20035;-77
2023/01/07 04:18:57;;;;;;;4.53;2.78;;;11.00;99.90;;;;;;5111190;28;20024;-77
2023/01/07 04:21:23;;;;;;;3.30;2.40;;;11.00;99.90;;;;;;5111511;28;20034;-77
2023/01/07 04:23:49;;;;;;;3.45;2.47;;;11.00;99.90;;;;;;5110172;28;20035;-77
2023/01/07 04:26:14;;;;;;;4.07;2.97;;;11.00;99.90;;;;;;5111108;28;20122;-77
2023/01/07 04:28:40;;;;;;;2.55;2.22;;;11.00;99.90;;;;;;5111090;27;20530;-76
2023/01/07 04:31:06;;;;;;;5.13;2.58;;;11.00;99.90;;;;;;5110124;28;20020;-76
2023/01/07 04:33:31;;;;;;;3.03;2.60;;;11.00;99.90;;;;;;5111105;28;20023;-78
2023/01/07 04:35:57;;;;;;;2.72;2.30;;;11.00;99.90;;;;;;5111519;28;20028;-77
2023/01/07 04:38:23;;;;;;;3.35;2.55;;;11.00;99.90;;;;;;5110995;28;20392;-77
2023/01/07 04:40:48;;;;;;;3.03;2.33;;;11.10;99.90;;;;;;5110899;28;20035;-77
2023/01/07 04:43:14;;;;;;;2.72;2.10;;;11.00;99.90;;;;;;5111025;28;20185;-77
2023/01/07 04:45:40;;;;;;;3.00;1.77;;;11.10;99.90;;;;;;5111097;28;20038;-77
2023/01/07 04:48:06;;;;;;;2.58;1.90;;;11.00;99.90;;;;;;5110247;28;20023;-77
2023/01/07 04:50:31;;;;;;;2.40;1.90;;;11.00;99.90;;;;;;5110099;28;20034;-77
2023/01/07 04:52:57;;;;;;;3.67;1.67;;;11.00;99.90;;;;;;5109884;28;20042;-77
2023/01/07 04:55:26;;;;;;;5.60;2.20;;;11.00;99.90;;;;;;5110032;28;20028;-77
2023/01/07 04:57:51;;;;;;;3.13;1.80;;;11.00;99.90;;;;;;5110760;28;20027;-75
2023/01/07 05:00:17;;;;;;;2.55;2.00;;;11.10;99.90;;;;;;5111622;28;20015;-76
2023/01/07 05:02:43;;;;;;;2.55;2.00;;;11.10;99.90;;;;;;5110935;28;20031;-76
2023/01/07 05:05:09;;;;;;;3.58;1.65;;;11.00;99.90;;;;;;5110806;28;20492;-77
2023/01/07 05:07:34;;;;;;;1.60;1.42;;;11.10;99.90;;;;;;5109519;28;20063;-76
2023/01/07 05:10:00;;;;;;;3.47;1.60;;;11.10;99.90;;;;;;5110460;28;20027;-77
2023/01/07 05:12:26;;;;;;;2.10;1.50;;;11.00;99.90;;;;;;5110114;28;20050;-77
2023/01/07 05:14:51;;;;;;;2.00;1.60;;;11.00;99.90;;;;;;5110647;28;20360;-77
2023/01/07 05:17:17;;;;;;;1.70;1.50;;;11.10;99.90;;;;;;5110299;28;20093;-77
2023/01/07 05:19:43;;;;;;;1.60;1.35;;;11.00;99.90;;;;;;5110684;28;20050;-76
2023/01/07 05:22:09;;;;;;;1.80;1.50;;;11.00;99.90;;;;;;5109582;28;20032;-77
2023/01/07 05:24:34;;;;;;;1.55;1.40;;;11.00;99.90;;;;;;5113269;28;20032;-77
2023/01/07 05:27:00;;;;;;;1.85;1.25;;;11.00;99.90;;;;;;5114914;28;20061;-76
2023/01/07 05:29:26;;;;;;;2.63;1.10;;;11.00;99.90;;;;;;5113180;28;20084;-77
2023/01/07 05:31:51;;;;;;;2.05;1.30;;;11.00;99.90;;;;;;5114083;28;20028;-76
2023/01/07 05:34:17;;;;;;;2.25;1.60;;;11.00;99.90;;;;;;5113878;28;20385;-77
2023/01/07 05:36:43;;;;;;;2.13;1.35;;;11.10;99.90;;;;;;5113942;28;20134;-77
2023/01/07 05:39:08;;;;;;;0.90;0.90;;;11.00;99.90;;;;;;5113806;28;20032;-77
2023/01/07 05:41:34;;;;;;;1.13;1.05;;;11.00;99.90;;;;;;5114452;28;20055;-77
2023/01/07 05:44:00;;;;;;;3.15;1.70;;;11.00;99.90;;;;;;5114307;28;20027;-76
2023/01/07 05:46:25;;;;;;;5.57;3.45;;;11.00;99.90;;;;;;5114336;28;20103;-77
2023/01/07 05:48:53;;;;;;;3.13;2.10;;;11.10;99.90;;;;;;5113299;28;20367;-76
2023/01/07 05:51:19;;;;;;;2.63;1.90;;;11.00;99.90;;;;;;5113700;28;20441;-76
2023/01/07 05:53:45;;;;;;;6.07;3.30;;;11.00;99.90;;;;;;5114442;28;20566;-76
2023/01/07 05:56:11;;;;;;;6.38;2.92;;;11.00;99.90;;;;;;5113143;28;20028;-76
2023/01/07 05:58:37;;;;;;;2.55;1.60;;;11.00;99.90;;;;;;5114068;28;20468;-75
2023/01/07 06:01:02;;;;;;;1.25;1.15;;;11.00;99.90;;;;;;5113120;28;20038;-76
2023/01/07 06:03:28;;;;;;;1.35;1.10;;;11.00;99.90;;;;;;5114006;28;20034;-76
2023/01/07 06:05:54;;;;;;;3.40;1.88;;;10.90;99.90;;;;;;5113553;28;20035;-77
2023/01/07 06:08:20;;;;;;;1.73;1.48;;;10.90;99.90;;;;;;5114870;28;20118;-76
2023/01/07 06:10:46;;;;;;;1.63;1.38;;;10.90;99.90;;;;;;5114656;28;20028;-77
2023/01/07 06:13:12;;;;;;;4.15;1.30;;;10.80;99.90;;;;;;5114973;28;20452;-76
2023/01/07 06:15:38;;;;;;;1.63;1.30;;;10.80;99.90;;;;;;5114575;28;20461;-77
2023/01/07 06:18:03;;;;;;;1.00;0.90;;;10.80;99.90;;;;;;5113893;28;20058;-76
2023/01/07 06:20:33;;;;;;;2.38;1.42;;;10.70;99.90;;;;;;5115023;28;20095;-76
2023/01/07 06:23:01;;;;;;;2.17;1.00;;;10.70;99.90;;;;;;5114594;27;20101;-77
2023/01/07 06:25:28;;;;;;;1.95;1.20;;;10.70;99.90;;;;;;5114458;28;20028;-76
2023/01/07 06:27:56;;;;;;;3.80;1.30;;;10.70;99.90;;;;;;5114356;28;20197;-77
2023/01/07 06:30:22;;;;;;;4.20;1.42;;;10.60;99.90;;;;;;5114499;28;20342;-76
2023/01/07 06:32:48;;;;;;;5.75;3.50;;;10.60;99.90;;;;;;5114766;28;20173;-77
2023/01/07 06:35:14;;;;;;;4.32;2.88;;;10.50;99.90;;;;;;5113159;28;20151;-77
2023/01/07 06:37:39;;;;;;;2.38;1.52;;;10.50;99.90;;;;;;5114026;28;20426;-77
2023/01/07 06:40:06;;;;;;;2.08;1.35;;;10.50;99.90;;;;;;5112798;28;20123;-76
2023/01/07 06:42:32;;;;;;;3.45;1.25;;;10.50;99.90;;;;;;5113167;28;20024;-77
2023/01/07 06:44:58;;;;;;;1.48;1.20;;;10.50;99.90;;;;;;5114264;28;20016;-76
2023/01/07 06:47:24;;;;;;;3.38;1.40;;;10.40;99.90;;;;;;5113910;28;20457;-76
2023/01/07 06:49:51;;;;;;;1.58;1.35;;;10.40;99.90;;;;;;5113986;28;20024;-77
2023/01/07 06:52:16;;;;;;;2.58;1.70;;;10.40;99.90;;;;;;5113764;28;20035;-76
2023/01/07 06:54:42;;;;;;;3.00;1.75;;;10.40;99.90;;;;;;5113880;28;20100;-76
2023/01/07 06:57:07;;;;;;;2.20;1.50;;;10.40;99.90;;;;;;5113628;28;20446;-77
2023/01/07 06:59:33;;;;;;;1.70;1.42;;;10.50;99.90;;;;;;5114136;28;20453;-77
2023/01/07 07:01:59;;;;;;;2.15;1.80;;;10.40;99.90;;;;;;5113760;28;20039;-77
2023/01/07 07:04:24;;;;;;;11.23;5.60;;;10.40;99.90;;;;;;5112721;28;20035;-76
2023/01/07 07:06:50;;;;;;;6.65;2.88;;;10.30;99.90;;;;;;5112357;28;20465;-75
2023/01/07 07:09:15;;;;;;;2.70;2.05;;;10.40;99.90;;;;;;5113713;27;20031;-76
2023/01/07 07:11:41;;;;;;;2.45;1.77;;;10.40;99.90;;;;;;5114063;28;20449;-77
2023/01/07 07:14:08;;;;;;;2.65;2.03;;;10.40;99.90;;;;;;5112209;28;20517;-78
2023/01/07 07:16:35;;;;;;;2.08;1.70;;;10.40;99.90;;;;;;5113281;28;20066;-77
2023/01/07 07:19:00;;;;;;;3.42;2.10;;;10.40;99.90;;;;;;5113866;28;20027;-76
2023/01/07 07:21:26;;;;;;;3.38;1.80;;;10.30;99.90;;;;;;5112157;28;20081;-76
2023/01/07 07:23:52;;;;;;;2.42;1.80;;;10.40;99.90;;;;;;5113039;28;20462;-77
2023/01/07 07:26:17;;;;;;;4.35;2.08;;;10.40;99.90;;;;;;5113154;28;20114;-77
2023/01/07 07:28:43;;;;;;;1.95;1.60;;;10.40;99.90;;;;;;5112101;28;20111;-76
2023/01/07 07:31:09;;;;;;;2.92;1.98;;;10.40;99.90;;;;;;5113268;28;20077;-77
2023/01/07 07:33:35;;;;;;;3.47;1.90;;;10.40;99.90;;;;;;5112864;28;20031;-77
2023/01/07 07:36:01;;;;;;;2.40;1.80;;;10.40;99.90;;;;;;5112268;28;20092;-77
2023/01/07 07:38:27;;;;;;;1.88;1.67;;;10.40;99.90;;;;;;5114126;28;20015;-77
2023/01/07 07:40:53;;;;;;;2.55;2.10;;;10.50;99.90;;;;;;5113103;28;20535;-76
2023/01/07 07:43:19;;;;;;;3.13;2.17;;;10.40;99.90;;;;;;5111818;28;20145;-77
2023/01/07 07:45:44;;;;;;;2.92;2.15;;;10.40;99.90;;;;;;5112639;28;20481;-76
2023/01/07 07:48:15;;;;;;;3.17;2.30;;;10.40;99.90;;;;;;5111999;28;20031;-77
2023/01/07 07:50:41;;;;;;;2.42;2.10;;;10.40;99.90;;;;;;5112818;28;20104;-76
2023/01/07 07:53:09;;;;;;;4.25;2.28;;;10.30;99.90;;;;;;5111737;28;20292;-77
2023/01/07 07:55:38;;;;;;;3.55;2.08;;;10.30;99.90;;;;;;5112160;28;20035;-77
2023/01/07 07:58:05;;;;;;;2.80;1.88;;;10.30;99.90;;;;;;5113110;28;20042;-77
2023/01/07 08:00:31;;;;;;;3.53;2.40;;;10.40;99.90;;;;;;5111243;28;20111;-77
2023/01/07 08:02:58;;;;;;;3.13;2.30;;;10.40;99.90;;;;;;5113217;28;20152;-76
2023/01/07 08:05:24;;;;;;;2.93;2.17;;;10.40;99.90;;;;;;5111581;28;20399;-77
2023/01/07 08:07:50;;;;;;;2.67;2.08;;;10.40;99.90;;;;;;5112455;28;20046;-75
2023/01/07 08:10:16;;;;;;;1.92;1.63;;;10.30;99.90;;;;;;5112534;28;20096;-77
2023/01/07 08:12:42;;;;;;;2.85;2.10;;;10.30;99.90;;;;;;5112969;28;20031;-78
2023/01/07 08:15:08;;;;;;;4.55;2.30;;;10.30;99.90;;;;;;5113115;28;20019;-77
2023/01/07 08:17:37;;;;;;;3.38;2.17;;;10.30;99.90;;;;;;5112202;28;20044;-76
2023/01/07 08:20:07;;;;;;;4.30;2.42;;;10.30;99.90;;;;;;5113018;28;20031;-78
2023/01/07 08:22:33;;;;;;;6.10;2.40;;;10.30;99.90;;;;;;5113018;28;20027;-76
2023/01/07 08:25:08;;;;;;;3.33;2.60;;;10.40;99.90;;;;;;5113550;28;20043;-77
2023/01/07 08:27:34;;;;;;;3.20;2.28;;;10.30;99.90;;;;;;5113118;28;20410;-76
2023/01/07 08:30:00;;;;;;;6.35;2.38;;;10.30;99.90;;;;;;5113145;28;20027;-77
2023/01/07 08:32:25;;;;;;;3.05;2.30;;;10.30;99.90;;;;;;5112230;28;20421;-76
2023/01/07 08:34:51;;;;;;;3.38;2.35;;;10.30;99.90;;;;;;5112487;28;20039;-77
2023/01/07 08:37:17;;;;;;;4.78;2.70;;;10.40;99.90;;;;;;5112222;28;20036;-77
2023/01/07 08:39:42;;;;;;;4.63;2.38;;;10.40;99.90;;;;;;5112246;28;20032;-76
2023/01/07 08:42:08;;;;;;;4.07;2.47;;;10.50;99.90;;;;;;5110624;28;20043;-77
2023/01/07 08:44:33;;;;;;;3.40;2.47;;;10.40;99.90;;;;;;5112532;28;20012;-77
2023/01/07 08:46:59;;;;;;;4.03;2.83;;;10.50;99.90;;;;;;5112001;28;20039;-76
2023/01/07 08:49:25;;;;;;;3.53;2.70;;;10.60;99.90;;;;;;5111913;28;20028;-77
2023/01/07 08:51:50;;;;;;;4.50;2.88;;;10.50;99.90;;;;;;5111802;28;20042;-76
2023/01/07 08:54:16;;;;;;;10.48;2.83;;;10.60;99.90;;;;;;5111496;28;20129;-77
2023/01/07 08:56:42;;;;;;;3.67;2.53;;;10.60;99.90;;;;;;5110946;28;20569;-77
2023/01/07 08:59:07;;;;;;;6.90;2.80;;;10.60;99.90;;;;;;5113604;28;20028;-76
2023/01/07 09:01:33;;;;;;;5.38;2.58;;;10.60;99.90;;;;;;5115688;28;20039;-76
2023/01/07 09:03:59;;;;;;;4.13;3.03;;;10.70;99.90;;;;;;5115854;28;20092;-77
2023/01/07 09:06:24;;;;;;;3.03;2.40;;;10.70;99.90;;;;;;5114520;28;20084;-76
2023/01/07 09:08:50;;;;;;;6.63;2.83;;;10.80;99.90;;;;;;5116057;28;20078;-76
2023/01/07 09:11:16;;;;;;;3.08;2.75;;;10.80;99.90;;;;;;5115590;28;20381;-77
2023/01/07 09:13:41;;;;;;;4.72;2.80;;;10.90;99.90;;;;;;5114286;28;20457;-76
2023/01/07 09:16:07;;;;;;;3.70;2.60;;;11.00;99.90;;;;;;5114152;28;20044;-76
2023/01/07 09:18:33;;;;;;;3.85;2.47;;;10.90;99.90;;;;;;5115868;28;20498;-77
2023/01/07 09:20:59;;;;;;;4.53;2.75;;;11.00;99.90;;;;;;5115236;28;20016;-77
2023/01/07 09:23:24;;;;;;;3.25;2.38;;;11.00;99.90;;;;;;5115555;27;20373;-77
2023/01/07 09:25:50;;;;;;;4.05;2.75;;;11.00;99.90;;;;;;5115373;28;20028;-77
2023/01/07 09:28:15;;;;;;;4.22;2.83;;;11.10;99.90;;;;;;5114117;28;20062;-77
2023/01/07 09:30:41;;;;;;;5.88;2.75;;;11.10;99.90;;;;;;5115218;28;20031;-77
2023/01/07 09:33:07;;;;;;;5.40;2.92;;;11.20;99.90;;;;;;5115028;27;20020;-77
2023/01/07 09:35:33;;;;;;;2.47;2.17;;;11.10;99.90;;;;;;5114550;28;20024;-77
2023/01/07 09:37:59;;;;;;;4.05;2.63;;;11.20;99.90;;;;;;5115095;28;20318;-76
2023/01/07 09:40:33;;;;;;;3.92;2.50;;;11.10;99.90;;;;;;5115146;28;20414;-76
2023/01/07 09:43:24;;;;;;;5.05;2.78;;;11.10;99.90;;;;;;5113735;28;20105;-77
2023/01/07 09:45:52;;;;;;;3.50;2.22;;;11.10;99.90;;;;;;5113714;28;20042;-77
2023/01/07 09:48:41;;;;;;;5.25;2.63;;;11.10;99.90;;;;;;5114907;28;20020;-76
2023/01/07 09:51:18;;;;;;;4.22;3.00;;;11.10;99.90;;;;;;5114768;28;20089;-76
2023/01/07 09:53:54;;;;;;;4.10;2.85;;;11.00;99.90;;;;;;5115466;28;20034;-76
2023/01/07 09:56:25;;;;;;;4.13;2.80;;;11.10;99.90;;;;;;5114604;28;20453;-76
2023/01/07 09:58:55;;;;;;;5.53;2.75;;;11.10;99.90;;;;;;5114941;28;20024;-76
2023/01/07 10:01:46;;;;;;;3.75;2.67;;;11.10;99.90;;;;;;5113796;28;20126;-77
2023/01/07 10:04:21;;;;;;;4.00;2.50;;;11.10;99.90;;;;;;5114795;28;20040;-77
2023/01/07 10:07:07;;;;;;;5.30;3.28;;;11.10;99.90;;;;;;5113202;28;20419;-75
2023/01/07 10:09:42;;;;;;;4.22;2.60;;;11.10;99.90;;;;;;5114352;28;20032;-77
2023/01/07 10:12:36;;;;;;;3.70;2.45;;;11.10;99.90;;;;;;5114622;28;20030;-77
2023/01/07 10:15:27;;;;;;;4.60;2.55;;;11.20;99.90;;;;;;5115004;28;20019;-77
2023/01/07 10:18:08;;;;;;;3.00;2.00;;;11.10;99.90;;;;;;5113770;28;20059;-77
2023/01/07 10:20:44;;;;;;;4.78;2.35;;;11.20;99.90;;;;;;5113337;28;20028;-75
2023/01/07 10:23:20;;;;;;;2.97;2.00;;;11.20;99.90;;;;;;5114142;27;20031;-76
2023/01/07 10:25:53;;;;;;;2.55;1.50;;;11.30;99.90;;;;;;5112769;28;20065;-76
2023/01/07 10:28:28;;;;;;;4.05;1.80;;;11.30;99.90;;;;;;5113662;28;20217;-76
2023/01/07 10:30:53;;;;;;;8.55;4.50;;;11.40;99.90;;;;;;5113131;28;20051;-77
2023/01/07 10:33:28;;;;;;;3.97;1.60;;;11.40;99.90;;;;;;5112835;28;20373;-76
2023/01/07 10:36:27;;;;;;;1.65;1.20;;;11.40;99.90;;;;;;5113520;28;20043;-77
2023/01/07 10:39:21;;;;;;;2.40;1.67;;;11.50;99.90;;;;;;5102128;28;20350;-77
2023/01/07 10:42:18;;;;;;;1.55;1.27;;;11.50;99.90;;;;;;5114025;28;20538;-77
2023/01/07 10:45:03;;;;;;;1.77;1.30;;;11.60;99.90;;;;;;5113998;28;20141;-78
2023/01/07 10:47:36;;;;;;;1.92;1.20;;;11.60;99.90;;;;;;5113892;28;20461;-77
2023/01/07 10:50:33;;;;;;;2.45;1.70;;;11.70;99.90;;;;;;5113594;28;20447;-77
2023/01/07 10:53:20;;;;;;;3.17;1.63;;;11.70;99.90;;;;;;5113646;28;20448;-76
2023/01/07 10:56:04;;;;;;;1.23;1.13;;;11.80;99.90;;;;;;5113678;28;20164;-76
2023/01/07 10:58:38;;;;;;;1.23;1.13;;;11.80;99.90;;;;;;5113467;28;20044;-78
2023/01/07 11:01:05;;;;;;;3.35;1.23;;;11.80;99.90;;;;;;5113339;28;20534;-78
2023/01/07 11:03:32;;;;;;;1.83;1.20;;;11.80;99.90;;;;;;5113341;28;20479;-76
2023/01/07 11:06:13;;;;;;;1.33;1.07;;;11.90;99.90;;;;;;5113908;28;20030;-77
2023/01/07 11:08:41;;;;;;;1.17;1.05;;;11.90;99.90;;;;;;5113371;28;20574;-79
2023/01/07 11:11:16;;;;;;;3.03;1.30;;;11.90;99.90;;;;;;5111282;28;20024;-77
2023/01/07 11:13:48;;;;;;;1.05;0.80;;;11.90;99.90;;;;;;5113320;28;20038;-79
2023/01/07 11:16:23;;;;;;;3.42;0.80;;;11.90;99.90;;;;;;5112776;28;20428;-75
2023/01/07 11:19:05;;;;;;;1.30;0.90;;;11.90;99.90;;;;;;5113070;28;20358;-78
2023/01/07 11:21:36;;;;;;;1.38;0.88;;;11.90;99.90;;;;;;5112744;28;20084;-75
2023/01/07 11:24:28;;;;;;;0.80;0.70;;;11.90;99.90;;;;;;5113012;28;20015;-77
2023/01/07 11:27:15;;;;;;;2.10;1.10;;;11.90;99.90;;;;;;5113314;28;20096;-75
2023/01/07 11:29:54;;;;;;;1.25;0.98;;;11.90;99.90;;;;;;5113371;28;20402;-77
2023/01/07 11:32:25;;;;;;;2.05;1.00;;;12.10;99.90;;;;;;5113201;28;20058;-78
2023/01/07 11:34:55;;;;;;;3.50;1.00;;;12.10;99.90;;;;;;5113211;28;20603;-78
2023/01/07 11:37:34;;;;;;;0.70;0.70;;;12.20;99.90;;;;;;5112994;28;20036;-77
2023/01/07 11:40:03;;;;;;;1.00;0.80;;;12.20;99.90;;;;;;5111832;28;20130;-76
2023/01/07 11:42:38;;;;;;;0.70;0.70;;;12.20;99.90;;;;;;5112952;28;20520;-76
2023/01/07 11:45:15;;;;;;;1.20;0.70;;;12.30;99.90;;;;;;5111845;28;20027;-77
2023/01/07 11:48:05;;;;;;;0.77;0.73;;;12.60;99.90;;;;;;5112939;28;20040;-77
2023/01/07 11:51:04;;;;;;;1.00;0.60;;;13.30;99.90;;;;;;5111756;28;20032;-76
2023/01/07 11:53:43;;;;;;;0.95;0.70;;;13.70;99.90;;;;;;5112767;28;20027;-76
2023/01/07 11:56:12;;;;;;;1.02;0.68;;;14.10;99.90;;;;;;5112324;28;20031;-77
2023/01/07 11:58:44;;;;;;;0.55;0.38;;;14.40;99.90;;;;;;5112679;28;20092;-74
2023/01/07 12:01:12;;;;;;;1.67;0.85;;;14.30;99.60;;;;;;5111679;28;20042;-74
2023/01/07 12:04:24;;;;;;;1.48;0.57;;;14.20;99.80;;;;;;5112581;28;20032;-76
2023/01/07 12:06:53;;;;;;;0.77;0.40;;;14.00;99.80;;;;;;5103583;27;20039;-75
2023/01/07 12:09:24;;;;;;;0.68;0.40;;;13.80;99.90;;;;;;5112191;28;20023;-75
2023/01/07 12:11:50;;;;;;;0.45;0.40;;;13.50;99.70;;;;;;5111486;28;20034;-76
2023/01/07 12:14:30;;;;;;;0.85;0.47;;;13.50;99.90;;;;;;5111179;28;20032;-76
2023/01/07 12:17:11;;;;;;;1.30;0.60;;;13.30;99.90;;;;;;5112068;28;20554;-76
2023/01/07 12:19:55;;;;;;;2.22;1.00;;;13.20;99.90;;;;;;5110917;28;20023;-77
2023/01/07 12:22:38;;;;;;;0.60;0.47;;;13.10;99.90;;;;;;5112286;28;20039;-77
2023/01/07 12:25:12;;;;;;;4.47;0.65;;;13.00;99.90;;;;;;5112160;28;20565;-77
2023/01/07 12:27:47;;;;;;;1.30;0.68;;;12.90;99.90;;;;;;5110508;28;20040;-76
2023/01/07 12:30:48;;;;;;;1.33;0.60;;;12.80;99.90;;;;;;5111669;28;20027;-76
2023/01/07 12:33:37;;;;;;;1.88;0.60;;;12.80;99.90;;;;;;5109815;28;20481;-76
2023/01/07 12:36:14;;;;;;;0.60;0.60;;;12.70;99.90;;;;;;5091875;28;20360;-77
2023/01/07 12:38:47;;;;;;;1.02;0.68;;;12.60;99.90;;;;;;5112052;28;20122;-76
2023/01/07 12:41:36;;;;;;;1.27;0.70;;;12.50;99.90;;;;;;5111492;28;20032;-76
2023/01/07 12:44:12;;;;;;;1.70;0.73;;;12.50;99.90;;;;;;5111590;28;20111;-77
2023/01/07 12:46:43;;;;;;;0.80;0.68;;;12.40;99.90;;;;;;5111763;28;20035;-78
2023/01/07 12:49:27;;;;;;;0.85;0.70;;;12.30;99.90;;;;;;5110553;28;20133;-77
2023/01/07 12:52:06;;;;;;;0.95;0.80;;;12.30;99.90;;;;;;5110718;28;20047;-78
2023/01/07 12:55:00;;;;;;;0.85;0.65;;;12.30;99.90;;;;;;5111736;28;20028;-77
2023/01/07 12:57:38;;;;;;;1.45;0.68;;;12.30;99.90;;;;;;5111588;28;20019;-76
2023/01/07 13:00:07;;;;;;;;;;;12.20;99.90;;;;;;5112546;28;20055;-77
2023/01/07 13:02:55;;;;;;;3.88;0.80;;;12.20;99.90;;;;;;5111340;28;19985;-77
2023/01/07 13:05:27;;;;;;;2.03;0.90;;;12.10;99.90;;;;;;5110198;28;20487;-76
2023/01/07 13:08:08;;;;;;;1.45;1.00;;;12.20;99.90;;;;;;5111446;28;20031;-78
2023/01/07 13:10:51;;;;;;;1.50;1.05;;;12.10;99.90;;;;;;5110713;28;20373;-77
2023/01/07 13:13:36;;;;;;;3.53;1.27;;;12.10;99.90;;;;;;5111505;28;20035;-77